C15 weather

Pekin Municipal Airport
Pekin, Illinois, United States

Public forecast

Using degrees Fahrenheit for public forecast. Weather courtesy of forecast.io.

METAR (pilot weather report)

Closest report is General Wayne A. Downing Peoria International Airport, 10.6 nm (19.6 km) N. Retrieved 2019/06/17 09:54 UTC (29 minutes ago):

KPIA 170954Z 03005KT 7SM OVC005 17/15 A2993 RMK AO2 SLP132 T01670150

TAF (pilot weather forecast)

Closest forecast is General Wayne A. Downing Peoria International Airport, 10.6 nm (19.6 km) N. Retrieved 2019/06/17 06:24 UTC (4 hours ago):

TAF KPIA 170523Z 1706/1806 05005KT 6SM BR SCT008 BKN012 TEMPO 1708/1711 SCT012 BKN250 FM171600 03005KT P6SM BKN021 FM171800 03005KT P6SM BKN050